sensor_id;sensor_type;location;lat;lon;timestamp;P1;durP1;ratioP1;P2;durP2;ratioP2
58496;SDS011;44284;51.310;16.904;2023-03-11T00:00:07;12.10;;;7.93;;
58496;SDS011;44284;51.310;16.904;2023-03-11T00:02:37;11.98;;;7.28;;
58496;SDS011;44284;51.310;16.904;2023-03-11T00:05:04;13.40;;;8.63;;
58496;SDS011;44284;51.310;16.904;2023-03-11T00:07:30;12.18;;;6.78;;
58496;SDS011;44284;51.310;16.904;2023-03-11T00:09:56;17.85;;;11.88;;
58496;SDS011;44284;51.310;16.904;2023-03-11T00:12:22;10.60;;;6.60;;
58496;SDS011;44284;51.310;16.904;2023-03-11T00:14:48;9.43;;;6.10;;
58496;SDS011;44284;51.310;16.904;2023-03-11T00:17:14;13.57;;;7.55;;
58496;SDS011;44284;51.310;16.904;2023-03-11T00:19:40;10.07;;;6.82;;
58496;SDS011;44284;51.310;16.904;2023-03-11T00:22:06;18.48;;;11.32;;
58496;SDS011;44284;51.310;16.904;2023-03-11T00:24:33;20.80;;;11.80;;
58496;SDS011;44284;51.310;16.904;2023-03-11T00:26:59;24.98;;;13.90;;
58496;SDS011;44284;51.310;16.904;2023-03-11T00:29:25;22.58;;;12.70;;
58496;SDS011;44284;51.310;16.904;2023-03-11T00:31:51;16.48;;;10.45;;
58496;SDS011;44284;51.310;16.904;2023-03-11T00:34:17;13.18;;;8.82;;
58496;SDS011;44284;51.310;16.904;2023-03-11T00:36:43;10.48;;;6.72;;
58496;SDS011;44284;51.310;16.904;2023-03-11T00:39:09;12.40;;;8.02;;
58496;SDS011;44284;51.310;16.904;2023-03-11T00:41:35;10.73;;;7.70;;
58496;SDS011;44284;51.310;16.904;2023-03-11T00:44:01;9.18;;;6.35;;
58496;SDS011;44284;51.310;16.904;2023-03-11T00:46:27;14.35;;;8.90;;
58496;SDS011;44284;51.310;16.904;2023-03-11T00:48:55;11.35;;;8.43;;
58496;SDS011;44284;51.310;16.904;2023-03-11T00:51:21;11.70;;;8.15;;
58496;SDS011;44284;51.310;16.904;2023-03-11T00:53:47;12.25;;;8.52;;
58496;SDS011;44284;51.310;16.904;2023-03-11T00:56:14;10.20;;;7.85;;
58496;SDS011;44284;51.310;16.904;2023-03-11T00:58:41;13.65;;;8.57;;
58496;SDS011;44284;51.310;16.904;2023-03-11T01:01:08;11.15;;;7.03;;
58496;SDS011;44284;51.310;16.904;2023-03-11T01:03:35;9.80;;;5.95;;
58496;SDS011;44284;51.310;16.904;2023-03-11T01:06:01;8.30;;;5.03;;
58496;SDS011;44284;51.310;16.904;2023-03-11T01:08:27;9.45;;;5.85;;
58496;SDS011;44284;51.310;16.904;2023-03-11T01:10:55;8.23;;;5.32;;
58496;SDS011;44284;51.310;16.904;2023-03-11T01:13:21;6.60;;;4.28;;
58496;SDS011;44284;51.310;16.904;2023-03-11T01:15:47;6.25;;;3.67;;
58496;SDS011;44284;51.310;16.904;2023-03-11T01:18:13;8.02;;;5.13;;
58496;SDS011;44284;51.310;16.904;2023-03-11T01:20:40;7.15;;;4.50;;
58496;SDS011;44284;51.310;16.904;2023-03-11T01:23:06;7.32;;;5.00;;
58496;SDS011;44284;51.310;16.904;2023-03-11T01:25:33;7.57;;;4.32;;
58496;SDS011;44284;51.310;16.904;2023-03-11T01:27:59;6.30;;;3.80;;
58496;SDS011;44284;51.310;16.904;2023-03-11T01:30:26;5.20;;;3.17;;
58496;SDS011;44284;51.310;16.904;2023-03-11T01:32:52;4.63;;;2.97;;
58496;SDS011;44284;51.310;16.904;2023-03-11T01:35:20;6.10;;;3.50;;
58496;SDS011;44284;51.310;16.904;2023-03-11T01:37:46;6.43;;;3.65;;
58496;SDS011;44284;51.310;16.904;2023-03-11T01:40:16;7.50;;;3.58;;
58496;SDS011;44284;51.310;16.904;2023-03-11T01:42:43;7.70;;;4.30;;
58496;SDS011;44284;51.310;16.904;2023-03-11T01:45:32;5.53;;;2.50;;
58496;SDS011;44284;51.310;16.904;2023-03-11T01:47:58;6.43;;;3.60;;
58496;SDS011;44284;51.310;16.904;2023-03-11T01:50:26;5.13;;;2.97;;
58496;SDS011;44284;51.310;16.904;2023-03-11T01:52:53;6.07;;;2.90;;
58496;SDS011;44284;51.310;16.904;2023-03-11T01:55:19;5.47;;;2.88;;
58496;SDS011;44284;51.310;16.904;2023-03-11T01:57:45;5.32;;;2.92;;
58496;SDS011;44284;51.310;16.904;2023-03-11T02:00:12;6.43;;;3.10;;
58496;SDS011;44284;51.310;16.904;2023-03-11T02:02:44;3.92;;;2.20;;
58496;SDS011;44284;51.310;16.904;2023-03-11T02:05:13;4.22;;;2.00;;
58496;SDS011;44284;51.310;16.904;2023-03-11T02:07:39;4.30;;;2.20;;
58496;SDS011;44284;51.310;16.904;2023-03-11T02:10:05;4.30;;;2.35;;
58496;SDS011;44284;51.310;16.904;2023-03-11T02:12:33;4.18;;;2.60;;
58496;SDS011;44284;51.310;16.904;2023-03-11T02:14:59;4.25;;;2.38;;
58496;SDS011;44284;51.310;16.904;2023-03-11T02:17:26;4.38;;;2.60;;
58496;SDS011;44284;51.310;16.904;2023-03-11T02:22:18;4.10;;;2.30;;
58496;SDS011;44284;51.310;16.904;2023-03-11T02:24:46;4.18;;;2.80;;
58496;SDS011;44284;51.310;16.904;2023-03-11T02:27:15;5.13;;;2.67;;
58496;SDS011;44284;51.310;16.904;2023-03-11T02:29:43;4.13;;;2.70;;
58496;SDS011;44284;51.310;16.904;2023-03-11T02:32:11;4.32;;;2.40;;
58496;SDS011;44284;51.310;16.904;2023-03-11T02:34:37;5.05;;;2.95;;
58496;SDS011;44284;51.310;16.904;2023-03-11T02:37:05;4.28;;;2.55;;
58496;SDS011;44284;51.310;16.904;2023-03-11T02:39:36;4.70;;;2.53;;
58496;SDS011;44284;51.310;16.904;2023-03-11T02:42:04;5.13;;;2.97;;
58496;SDS011;44284;51.310;16.904;2023-03-11T02:44:30;6.38;;;4.20;;
58496;SDS011;44284;51.310;16.904;2023-03-11T02:46:56;6.50;;;4.03;;
58496;SDS011;44284;51.310;16.904;2023-03-11T02:49:22;7.18;;;3.50;;
58496;SDS011;44284;51.310;16.904;2023-03-11T02:51:49;7.82;;;3.35;;
58496;SDS011;44284;51.310;16.904;2023-03-11T02:54:16;6.22;;;3.22;;
58496;SDS011;44284;51.310;16.904;2023-03-11T02:56:42;7.70;;;4.35;;
58496;SDS011;44284;51.310;16.904;2023-03-11T02:59:08;6.80;;;3.78;;
58496;SDS011;44284;51.310;16.904;2023-03-11T03:01:34;6.68;;;3.33;;
58496;SDS011;44284;51.310;16.904;2023-03-11T03:04:00;6.00;;;3.72;;
58496;SDS011;44284;51.310;16.904;2023-03-11T03:06:26;6.25;;;3.63;;
58496;SDS011;44284;51.310;16.904;2023-03-11T03:08:53;3.83;;;2.45;;
58496;SDS011;44284;51.310;16.904;2023-03-11T03:11:19;3.60;;;2.22;;
58496;SDS011;44284;51.310;16.904;2023-03-11T03:13:45;2.30;;;1.48;;
58496;SDS011;44284;51.310;16.904;2023-03-11T03:16:11;1.85;;;1.15;;
58496;SDS011;44284;51.310;16.904;2023-03-11T03:18:37;2.53;;;1.50;;
58496;SDS011;44284;51.310;16.904;2023-03-11T03:21:03;2.13;;;1.40;;
58496;SDS011;44284;51.310;16.904;2023-03-11T03:23:29;2.13;;;1.48;;
58496;SDS011;44284;51.310;16.904;2023-03-11T03:25:59;2.75;;;1.65;;
58496;SDS011;44284;51.310;16.904;2023-03-11T03:28:26;3.58;;;1.92;;
58496;SDS011;44284;51.310;16.904;2023-03-11T03:30:52;2.60;;;1.60;;
58496;SDS011;44284;51.310;16.904;2023-03-11T03:33:18;3.35;;;1.90;;
58496;SDS011;44284;51.310;16.904;2023-03-11T03:35:45;2.78;;;1.65;;
58496;SDS011;44284;51.310;16.904;2023-03-11T03:38:11;3.58;;;2.00;;
58496;SDS011;44284;51.310;16.904;2023-03-11T03:40:37;3.58;;;2.00;;
58496;SDS011;44284;51.310;16.904;2023-03-11T03:43:04;4.70;;;2.40;;
58496;SDS011;44284;51.310;16.904;2023-03-11T03:45:30;4.00;;;2.53;;
58496;SDS011;44284;51.310;16.904;2023-03-11T03:47:56;3.05;;;1.90;;
58496;SDS011;44284;51.310;16.904;2023-03-11T03:50:22;2.88;;;1.92;;
58496;SDS011;44284;51.310;16.904;2023-03-11T03:52:48;2.72;;;1.67;;
58496;SDS011;44284;51.310;16.904;2023-03-11T03:55:14;2.72;;;1.75;;
58496;SDS011;44284;51.310;16.904;2023-03-11T03:57:40;3.40;;;1.77;;
58496;SDS011;44284;51.310;16.904;2023-03-11T04:00:07;2.35;;;1.50;;
58496;SDS011;44284;51.310;16.904;2023-03-11T04:02:33;2.60;;;1.50;;
58496;SDS011;44284;51.310;16.904;2023-03-11T04:04:59;2.08;;;1.17;;
58496;SDS011;44284;51.310;16.904;2023-03-11T04:07:26;2.63;;;1.58;;
58496;SDS011;44284;51.310;16.904;2023-03-11T04:09:52;2.45;;;1.52;;
58496;SDS011;44284;51.310;16.904;2023-03-11T04:12:18;1.35;;;1.00;;
58496;SDS011;44284;51.310;16.904;2023-03-11T04:14:44;1.63;;;1.20;;
58496;SDS011;44284;51.310;16.904;2023-03-11T04:17:10;1.15;;;0.98;;
58496;SDS011;44284;51.310;16.904;2023-03-11T04:19:36;2.20;;;1.30;;
58496;SDS011;44284;51.310;16.904;2023-03-11T04:22:02;2.05;;;1.23;;
58496;SDS011;44284;51.310;16.904;2023-03-11T04:24:29;1.48;;;1.10;;
58496;SDS011;44284;51.310;16.904;2023-03-11T04:26:55;1.42;;;1.15;;
58496;SDS011;44284;51.310;16.904;2023-03-11T04:29:21;2.35;;;1.50;;
58496;SDS011;44284;51.310;16.904;2023-03-11T04:31:47;2.35;;;1.60;;
58496;SDS011;44284;51.310;16.904;2023-03-11T04:34:13;3.28;;;1.90;;
58496;SDS011;44284;51.310;16.904;2023-03-11T04:36:39;2.33;;;1.70;;
58496;SDS011;44284;51.310;16.904;2023-03-11T04:39:06;2.80;;;1.65;;
58496;SDS011;44284;51.310;16.904;2023-03-11T04:41:32;2.22;;;1.50;;
58496;SDS011;44284;51.310;16.904;2023-03-11T04:43:58;3.85;;;2.00;;
58496;SDS011;44284;51.310;16.904;2023-03-11T04:46:25;3.22;;;1.98;;
58496;SDS011;44284;51.310;16.904;2023-03-11T04:48:51;2.40;;;1.70;;
58496;SDS011;44284;51.310;16.904;2023-03-11T04:51:17;3.75;;;2.05;;
58496;SDS011;44284;51.310;16.904;2023-03-11T04:53:43;2.75;;;1.73;;
58496;SDS011;44284;51.310;16.904;2023-03-11T04:56:09;3.45;;;2.08;;
58496;SDS011;44284;51.310;16.904;2023-03-11T04:58:35;5.00;;;2.80;;
58496;SDS011;44284;51.310;16.904;2023-03-11T05:01:01;3.63;;;2.15;;
58496;SDS011;44284;51.310;16.904;2023-03-11T05:03:27;3.00;;;2.00;;
58496;SDS011;44284;51.310;16.904;2023-03-11T05:05:53;3.33;;;2.10;;
58496;SDS011;44284;51.310;16.904;2023-03-11T05:08:24;2.40;;;1.35;;
58496;SDS011;44284;51.310;16.904;2023-03-11T05:10:50;3.33;;;2.05;;
58496;SDS011;44284;51.310;16.904;2023-03-11T05:13:17;2.95;;;1.83;;
58496;SDS011;44284;51.310;16.904;2023-03-11T05:15:45;3.63;;;1.95;;
58496;SDS011;44284;51.310;16.904;2023-03-11T05:18:12;2.85;;;1.80;;
58496;SDS011;44284;51.310;16.904;2023-03-11T05:20:38;3.20;;;1.85;;
58496;SDS011;44284;51.310;16.904;2023-03-11T05:23:04;3.28;;;1.85;;
58496;SDS011;44284;51.310;16.904;2023-03-11T05:25:30;3.10;;;1.80;;
58496;SDS011;44284;51.310;16.904;2023-03-11T05:27:56;4.03;;;2.13;;
58496;SDS011;44284;51.310;16.904;2023-03-11T05:30:22;2.50;;;1.65;;
58496;SDS011;44284;51.310;16.904;2023-03-11T05:32:48;2.90;;;1.52;;
58496;SDS011;44284;51.310;16.904;2023-03-11T05:35:14;2.45;;;1.40;;
58496;SDS011;44284;51.310;16.904;2023-03-11T05:37:40;2.35;;;1.45;;
58496;SDS011;44284;51.310;16.904;2023-03-11T05:40:06;2.58;;;1.73;;
58496;SDS011;44284;51.310;16.904;2023-03-11T05:42:33;1.67;;;1.10;;
58496;SDS011;44284;51.310;16.904;2023-03-11T05:44:59;2.40;;;1.40;;
58496;SDS011;44284;51.310;16.904;2023-03-11T05:47:25;2.58;;;1.65;;
58496;SDS011;44284;51.310;16.904;2023-03-11T05:49:51;4.13;;;1.70;;
58496;SDS011;44284;51.310;16.904;2023-03-11T05:52:17;3.00;;;1.65;;
58496;SDS011;44284;51.310;16.904;2023-03-11T05:54:43;3.17;;;1.77;;
58496;SDS011;44284;51.310;16.904;2023-03-11T05:57:09;2.72;;;1.67;;
58496;SDS011;44284;51.310;16.904;2023-03-11T05:59:35;3.40;;;1.73;;
58496;SDS011;44284;51.310;16.904;2023-03-11T06:02:01;5.30;;;3.00;;
58496;SDS011;44284;51.310;16.904;2023-03-11T06:04:28;5.22;;;2.17;;
58496;SDS011;44284;51.310;16.904;2023-03-11T06:06:54;4.38;;;1.98;;
58496;SDS011;44284;51.310;16.904;2023-03-11T06:09:20;4.30;;;2.00;;
58496;SDS011;44284;51.310;16.904;2023-03-11T06:11:46;12.00;;;4.45;;
58496;SDS011;44284;51.310;16.904;2023-03-11T06:14:12;9.23;;;3.95;;
58496;SDS011;44284;51.310;16.904;2023-03-11T06:16:40;4.40;;;2.38;;
58496;SDS011;44284;51.310;16.904;2023-03-11T06:19:06;4.72;;;2.03;;
58496;SDS011;44284;51.310;16.904;2023-03-11T06:21:32;8.77;;;4.18;;
58496;SDS011;44284;51.310;16.904;2023-03-11T06:23:58;12.98;;;5.55;;
58496;SDS011;44284;51.310;16.904;2023-03-11T06:26:24;4.53;;;2.30;;
58496;SDS011;44284;51.310;16.904;2023-03-11T06:28:51;4.53;;;2.83;;
58496;SDS011;44284;51.310;16.904;2023-03-11T06:31:21;6.28;;;3.03;;
58496;SDS011;44284;51.310;16.904;2023-03-11T06:33:51;4.50;;;2.33;;
58496;SDS011;44284;51.310;16.904;2023-03-11T06:36:18;6.13;;;2.90;;
58496;SDS011;44284;51.310;16.904;2023-03-11T06:38:44;5.22;;;2.83;;
58496;SDS011;44284;51.310;16.904;2023-03-11T06:41:10;6.20;;;2.78;;
58496;SDS011;44284;51.310;16.904;2023-03-11T06:43:36;9.88;;;4.20;;
58496;SDS011;44284;51.310;16.904;2023-03-11T06:46:09;7.82;;;3.33;;
58496;SDS011;44284;51.310;16.904;2023-03-11T06:48:36;6.05;;;2.92;;
58496;SDS011;44284;51.310;16.904;2023-03-11T06:51:02;6.68;;;3.13;;
58496;SDS011;44284;51.310;16.904;2023-03-11T06:53:29;6.63;;;3.60;;
58496;SDS011;44284;51.310;16.904;2023-03-11T06:56:06;7.03;;;3.45;;
58496;SDS011;44284;51.310;16.904;2023-03-11T06:58:32;9.85;;;4.57;;
58496;SDS011;44284;51.310;16.904;2023-03-11T07:01:20;7.65;;;3.70;;
58496;SDS011;44284;51.310;16.904;2023-03-11T07:03:46;7.40;;;3.60;;
58496;SDS011;44284;51.310;16.904;2023-03-11T07:06:13;5.97;;;3.42;;
58496;SDS011;44284;51.310;16.904;2023-03-11T07:08:39;8.13;;;4.68;;
58496;SDS011;44284;51.310;16.904;2023-03-11T07:11:07;7.15;;;4.20;;
58496;SDS011;44284;51.310;16.904;2023-03-11T07:13:34;6.95;;;3.75;;
58496;SDS011;44284;51.310;16.904;2023-03-11T07:16:01;7.63;;;3.63;;
58496;SDS011;44284;51.310;16.904;2023-03-11T07:18:27;8.77;;;4.57;;
58496;SDS011;44284;51.310;16.904;2023-03-11T07:20:53;9.60;;;4.13;;
58496;SDS011;44284;51.310;16.904;2023-03-11T07:23:19;7.20;;;3.55;;
58496;SDS011;44284;51.310;16.904;2023-03-11T07:25:46;9.30;;;3.47;;
58496;SDS011;44284;51.310;16.904;2023-03-11T07:28:12;7.05;;;3.70;;
58496;SDS011;44284;51.310;16.904;2023-03-11T07:30:38;7.43;;;4.00;;
58496;SDS011;44284;51.310;16.904;2023-03-11T07:33:04;8.02;;;4.10;;
58496;SDS011;44284;51.310;16.904;2023-03-11T07:35:30;8.07;;;4.18;;
58496;SDS011;44284;51.310;16.904;2023-03-11T07:37:56;6.60;;;4.13;;
58496;SDS011;44284;51.310;16.904;2023-03-11T07:40:22;7.82;;;4.22;;
58496;SDS011;44284;51.310;16.904;2023-03-11T07:42:48;6.68;;;4.13;;
58496;SDS011;44284;51.310;16.904;2023-03-11T07:45:14;8.25;;;4.75;;
58496;SDS011;44284;51.310;16.904;2023-03-11T07:47:40;9.60;;;4.53;;
58496;SDS011;44284;51.310;16.904;2023-03-11T07:50:06;7.72;;;4.18;;
58496;SDS011;44284;51.310;16.904;2023-03-11T07:52:33;8.85;;;5.20;;
58496;SDS011;44284;51.310;16.904;2023-03-11T07:54:59;7.78;;;4.63;;
58496;SDS011;44284;51.310;16.904;2023-03-11T07:57:25;9.35;;;5.43;;
58496;SDS011;44284;51.310;16.904;2023-03-11T07:59:51;8.75;;;5.03;;
58496;SDS011;44284;51.310;16.904;2023-03-11T08:02:17;9.77;;;6.07;;
58496;SDS011;44284;51.310;16.904;2023-03-11T08:04:43;10.65;;;6.55;;
58496;SDS011;44284;51.310;16.904;2023-03-11T08:07:09;11.77;;;7.07;;
58496;SDS011;44284;51.310;16.904;2023-03-11T08:09:35;11.57;;;6.93;;
58496;SDS011;44284;51.310;16.904;2023-03-11T08:12:01;21.10;;;9.32;;
58496;SDS011;44284;51.310;16.904;2023-03-11T08:14:27;7.25;;;3.53;;
58496;SDS011;44284;51.310;16.904;2023-03-11T08:16:53;12.43;;;6.55;;
58496;SDS011;44284;51.310;16.904;2023-03-11T08:19:19;10.25;;;5.20;;
58496;SDS011;44284;51.310;16.904;2023-03-11T08:21:45;10.27;;;5.75;;
58496;SDS011;44284;51.310;16.904;2023-03-11T08:24:12;12.18;;;6.85;;
58496;SDS011;44284;51.310;16.904;2023-03-11T08:26:38;10.25;;;6.00;;
58496;SDS011;44284;51.310;16.904;2023-03-11T08:29:05;12.48;;;6.78;;
58496;SDS011;44284;51.310;16.904;2023-03-11T08:31:31;12.35;;;7.10;;
58496;SDS011;44284;51.310;16.904;2023-03-11T08:34:00;10.30;;;6.22;;
58496;SDS011;44284;51.310;16.904;2023-03-11T08:36:27;13.43;;;7.38;;
58496;SDS011;44284;51.310;16.904;2023-03-11T08:38:53;10.27;;;5.72;;
58496;SDS011;44284;51.310;16.904;2023-03-11T08:41:19;10.48;;;6.22;;
58496;SDS011;44284;51.310;16.904;2023-03-11T08:43:45;10.77;;;5.90;;
58496;SDS011;44284;51.310;16.904;2023-03-11T08:46:16;10.82;;;5.78;;
58496;SDS011;44284;51.310;16.904;2023-03-11T08:48:45;9.43;;;5.40;;
58496;SDS011;44284;51.310;16.904;2023-03-11T08:51:12;8.65;;;5.28;;
58496;SDS011;44284;51.310;16.904;2023-03-11T08:53:38;11.27;;;6.00;;
58496;SDS011;44284;51.310;16.904;2023-03-11T08:56:05;10.27;;;5.43;;
58496;SDS011;44284;51.310;16.904;2023-03-11T08:58:31;10.32;;;5.90;;
58496;SDS011;44284;51.310;16.904;2023-03-11T09:00:57;8.75;;;5.07;;
58496;SDS011;44284;51.310;16.904;2023-03-11T09:03:23;10.63;;;5.65;;
58496;SDS011;44284;51.310;16.904;2023-03-11T09:05:55;8.98;;;5.60;;
58496;SDS011;44284;51.310;16.904;2023-03-11T09:08:21;9.52;;;5.85;;
58496;SDS011;44284;51.310;16.904;2023-03-11T09:10:47;9.95;;;5.57;;
58496;SDS011;44284;51.310;16.904;2023-03-11T09:13:13;8.70;;;4.60;;
58496;SDS011;44284;51.310;16.904;2023-03-11T09:15:39;8.70;;;5.32;;
58496;SDS011;44284;51.310;16.904;2023-03-11T09:18:05;8.95;;;4.78;;
58496;SDS011;44284;51.310;16.904;2023-03-11T09:20:33;8.25;;;4.32;;
58496;SDS011;44284;51.310;16.904;2023-03-11T09:22:59;8.45;;;4.43;;
58496;SDS011;44284;51.310;16.904;2023-03-11T09:25:25;8.10;;;4.68;;
58496;SDS011;44284;51.310;16.904;2023-03-11T09:27:51;8.52;;;4.68;;
58496;SDS011;44284;51.310;16.904;2023-03-11T09:30:17;6.60;;;3.47;;
58496;SDS011;44284;51.310;16.904;2023-03-11T09:32:43;7.60;;;4.20;;
58496;SDS011;44284;51.310;16.904;2023-03-11T09:35:09;6.65;;;3.85;;
58496;SDS011;44284;51.310;16.904;2023-03-11T09:37:35;18.83;;;7.88;;
58496;SDS011;44284;51.310;16.904;2023-03-11T09:40:01;6.30;;;3.67;;
58496;SDS011;44284;51.310;16.904;2023-03-11T09:45:19;7.47;;;4.00;;
58496;SDS011;44284;51.310;16.904;2023-03-11T09:47:54;6.68;;;3.53;;
58496;SDS011;44284;51.310;16.904;2023-03-11T09:50:34;6.55;;;3.33;;
58496;SDS011;44284;51.310;16.904;2023-03-11T09:53:17;6.70;;;4.40;;
58496;SDS011;44284;51.310;16.904;2023-03-11T09:55:52;8.02;;;4.68;;
58496;SDS011;44284;51.310;16.904;2023-03-11T09:58:27;8.85;;;4.95;;
58496;SDS011;44284;51.310;16.904;2023-03-11T10:00:56;13.18;;;7.93;;
58496;SDS011;44284;51.310;16.904;2023-03-11T10:03:29;8.32;;;4.88;;
58496;SDS011;44284;51.310;16.904;2023-03-11T10:06:15;9.77;;;5.97;;
58496;SDS011;44284;51.310;16.904;2023-03-11T10:13:58;7.53;;;4.35;;
58496;SDS011;44284;51.310;16.904;2023-03-11T10:16:36;10.68;;;5.35;;
58496;SDS011;44284;51.310;16.904;2023-03-11T10:21:38;8.80;;;5.07;;
58496;SDS011;44284;51.310;16.904;2023-03-11T10:26:49;9.73;;;6.10;;
58496;SDS011;44284;51.310;16.904;2023-03-11T10:34:34;8.23;;;4.07;;
58496;SDS011;44284;51.310;16.904;2023-03-11T10:37:10;9.00;;;5.05;;
58496;SDS011;44284;51.310;16.904;2023-03-11T10:39:39;9.00;;;4.93;;
58496;SDS011;44284;51.310;16.904;2023-03-11T10:42:09;9.77;;;4.32;;
58496;SDS011;44284;51.310;16.904;2023-03-11T10:44:38;17.95;;;7.30;;
58496;SDS011;44284;51.310;16.904;2023-03-11T10:47:04;9.63;;;5.15;;
58496;SDS011;44284;51.310;16.904;2023-03-11T10:49:31;8.88;;;5.32;;
58496;SDS011;44284;51.310;16.904;2023-03-11T10:51:57;8.88;;;5.47;;
58496;SDS011;44284;51.310;16.904;2023-03-11T10:54:28;9.55;;;5.07;;
58496;SDS011;44284;51.310;16.904;2023-03-11T10:56:55;11.45;;;5.82;;
58496;SDS011;44284;51.310;16.904;2023-03-11T11:00:04;8.70;;;4.75;;
58496;SDS011;44284;51.310;16.904;2023-03-11T11:04:46;12.30;;;6.05;;
58496;SDS011;44284;51.310;16.904;2023-03-11T11:07:27;11.50;;;6.40;;
58496;SDS011;44284;51.310;16.904;2023-03-11T11:13:00;11.60;;;5.68;;
58496;SDS011;44284;51.310;16.904;2023-03-11T11:15:41;10.93;;;5.40;;
58496;SDS011;44284;51.310;16.904;2023-03-11T11:18:20;12.93;;;6.60;;
58496;SDS011;44284;51.310;16.904;2023-03-11T11:23:26;10.20;;;5.28;;
58496;SDS011;44284;51.310;16.904;2023-03-11T11:25:56;11.75;;;6.30;;
58496;SDS011;44284;51.310;16.904;2023-03-11T11:28:23;10.55;;;5.57;;
58496;SDS011;44284;51.310;16.904;2023-03-11T11:33:20;31.83;;;13.88;;
58496;SDS011;44284;51.310;16.904;2023-03-11T11:35:48;23.73;;;9.02;;
58496;SDS011;44284;51.310;16.904;2023-03-11T11:38:15;12.13;;;6.03;;
58496;SDS011;44284;51.310;16.904;2023-03-11T11:40:41;10.75;;;6.13;;
58496;SDS011;44284;51.310;16.904;2023-03-11T11:43:15;11.38;;;6.00;;
58496;SDS011;44284;51.310;16.904;2023-03-11T11:45:42;14.90;;;7.97;;
58496;SDS011;44284;51.310;16.904;2023-03-11T11:50:55;55.13;;;17.20;;
58496;SDS011;44284;51.310;16.904;2023-03-11T11:53:27;49.08;;;14.90;;
58496;SDS011;44284;51.310;16.904;2023-03-11T11:55:56;11.50;;;5.90;;
58496;SDS011;44284;51.310;16.904;2023-03-11T11:58:23;15.77;;;6.38;;
58496;SDS011;44284;51.310;16.904;2023-03-11T12:06:03;14.13;;;7.63;;
58496;SDS011;44284;51.310;16.904;2023-03-11T12:09:05;62.50;;;19.85;;
58496;SDS011;44284;51.310;16.904;2023-03-11T12:11:46;12.13;;;6.47;;
58496;SDS011;44284;51.310;16.904;2023-03-11T12:14:24;43.17;;;12.98;;
58496;SDS011;44284;51.310;16.904;2023-03-11T12:16:57;14.18;;;6.30;;
58496;SDS011;44284;51.310;16.904;2023-03-11T12:19:32;12.40;;;6.45;;
58496;SDS011;44284;51.310;16.904;2023-03-11T12:27:24;13.27;;;6.03;;
58496;SDS011;44284;51.310;16.904;2023-03-11T12:29:51;8.90;;;4.88;;
58496;SDS011;44284;51.310;16.904;2023-03-11T12:32:37;9.13;;;4.85;;
58496;SDS011;44284;51.310;16.904;2023-03-11T12:35:18;11.13;;;5.03;;
58496;SDS011;44284;51.310;16.904;2023-03-11T12:37:45;10.30;;;5.18;;
58496;SDS011;44284;51.310;16.904;2023-03-11T12:40:38;9.07;;;5.03;;
58496;SDS011;44284;51.310;16.904;2023-03-11T12:43:25;13.20;;;5.78;;
58496;SDS011;44284;51.310;16.904;2023-03-11T12:45:54;8.20;;;4.97;;
58496;SDS011;44284;51.310;16.904;2023-03-11T12:48:24;9.45;;;4.60;;
58496;SDS011;44284;51.310;16.904;2023-03-11T12:50:50;13.60;;;6.55;;
58496;SDS011;44284;51.310;16.904;2023-03-11T12:53:16;14.52;;;7.18;;
58496;SDS011;44284;51.310;16.904;2023-03-11T12:55:59;11.60;;;5.57;;
58496;SDS011;44284;51.310;16.904;2023-03-11T13:03:56;10.32;;;6.10;;
58496;SDS011;44284;51.310;16.904;2023-03-11T13:06:33;12.63;;;7.30;;
58496;SDS011;44284;51.310;16.904;2023-03-11T13:09:03;11.95;;;6.35;;
58496;SDS011;44284;51.310;16.904;2023-03-11T13:14:08;12.75;;;7.28;;
58496;SDS011;44284;51.310;16.904;2023-03-11T13:16:36;15.30;;;8.13;;
58496;SDS011;44284;51.310;16.904;2023-03-11T13:42:42;12.35;;;6.35;;
58496;SDS011;44284;51.310;16.904;2023-03-11T13:45:01;10.68;;;5.75;;
58496;SDS011;44284;51.310;16.904;2023-03-11T13:47:31;11.90;;;5.93;;
58496;SDS011;44284;51.310;16.904;2023-03-11T13:50:07;11.68;;;5.95;;
58496;SDS011;44284;51.310;16.904;2023-03-11T13:52:42;9.27;;;4.78;;
58496;SDS011;44284;51.310;16.904;2023-03-11T13:55:19;8.88;;;4.75;;
58496;SDS011;44284;51.310;16.904;2023-03-11T13:57:55;9.55;;;5.18;;
58496;SDS011;44284;51.310;16.904;2023-03-11T14:00:23;9.20;;;5.25;;
58496;SDS011;44284;51.310;16.904;2023-03-11T14:02:50;10.05;;;5.30;;
58496;SDS011;44284;51.310;16.904;2023-03-11T14:05:23;9.15;;;4.57;;
58496;SDS011;44284;51.310;16.904;2023-03-11T14:11:02;10.75;;;4.68;;
58496;SDS011;44284;51.310;16.904;2023-03-11T14:13:30;9.40;;;5.00;;
58496;SDS011;44284;51.310;16.904;2023-03-11T14:16:01;10.95;;;5.70;;
58496;SDS011;44284;51.310;16.904;2023-03-11T14:18:31;7.93;;;4.80;;
58496;SDS011;44284;51.310;16.904;2023-03-11T14:20:57;9.70;;;5.45;;
58496;SDS011;44284;51.310;16.904;2023-03-11T14:23:33;8.90;;;4.38;;
58496;SDS011;44284;51.310;16.904;2023-03-11T14:26:21;11.73;;;5.50;;
58496;SDS011;44284;51.310;16.904;2023-03-11T14:28:48;8.63;;;5.05;;
58496;SDS011;44284;51.310;16.904;2023-03-11T14:31:20;8.63;;;4.80;;
58496;SDS011;44284;51.310;16.904;2023-03-11T14:34:03;10.70;;;4.65;;
58496;SDS011;44284;51.310;16.904;2023-03-11T14:39:16;8.88;;;5.05;;
58496;SDS011;44284;51.310;16.904;2023-03-11T14:41:46;11.15;;;5.85;;
58496;SDS011;44284;51.310;16.904;2023-03-11T14:44:12;9.57;;;5.60;;
58496;SDS011;44284;51.310;16.904;2023-03-11T14:46:39;7.90;;;4.47;;
58496;SDS011;44284;51.310;16.904;2023-03-11T14:49:05;8.68;;;5.18;;
58496;SDS011;44284;51.310;16.904;2023-03-11T14:51:32;8.70;;;4.68;;
58496;SDS011;44284;51.310;16.904;2023-03-11T14:57:03;11.05;;;6.20;;
58496;SDS011;44284;51.310;16.904;2023-03-11T14:59:31;8.77;;;5.20;;
58496;SDS011;44284;51.310;16.904;2023-03-11T15:02:04;8.00;;;5.32;;
58496;SDS011;44284;51.310;16.904;2023-03-11T15:04:32;10.25;;;5.55;;
58496;SDS011;44284;51.310;16.904;2023-03-11T15:07:02;10.32;;;5.35;;
58496;SDS011;44284;51.310;16.904;2023-03-11T15:09:28;11.05;;;6.22;;
58496;SDS011;44284;51.310;16.904;2023-03-11T15:11:56;10.40;;;5.68;;
58496;SDS011;44284;51.310;16.904;2023-03-11T15:14:27;8.75;;;4.97;;
58496;SDS011;44284;51.310;16.904;2023-03-11T15:17:08;7.78;;;5.00;;
58496;SDS011;44284;51.310;16.904;2023-03-11T15:19:34;8.63;;;4.65;;
58496;SDS011;44284;51.310;16.904;2023-03-11T15:24:55;8.60;;;4.90;;
58496;SDS011;44284;51.310;16.904;2023-03-11T15:27:26;8.20;;;4.93;;
58496;SDS011;44284;51.310;16.904;2023-03-11T15:29:53;9.00;;;4.65;;
58496;SDS011;44284;51.310;16.904;2023-03-11T15:32:34;7.93;;;4.25;;
58496;SDS011;44284;51.310;16.904;2023-03-11T15:35:11;9.48;;;4.72;;
58496;SDS011;44284;51.310;16.904;2023-03-11T15:37:38;10.25;;;4.43;;
58496;SDS011;44284;51.310;16.904;2023-03-11T15:40:16;7.57;;;4.70;;
58496;SDS011;44284;51.310;16.904;2023-03-11T15:42:43;9.25;;;5.03;;
58496;SDS011;44284;51.310;16.904;2023-03-11T15:45:14;9.43;;;4.65;;
58496;SDS011;44284;51.310;16.904;2023-03-11T15:47:40;8.50;;;4.57;;
58496;SDS011;44284;51.310;16.904;2023-03-11T15:50:23;9.30;;;5.25;;
58496;SDS011;44284;51.310;16.904;2023-03-11T15:53:00;8.82;;;4.82;;
58496;SDS011;44284;51.310;16.904;2023-03-11T15:55:32;11.10;;;4.43;;
58496;SDS011;44284;51.310;16.904;2023-03-11T15:58:04;8.13;;;4.63;;
58496;SDS011;44284;51.310;16.904;2023-03-11T16:00:30;7.65;;;4.10;;
58496;SDS011;44284;51.310;16.904;2023-03-11T16:02:57;9.15;;;4.25;;
58496;SDS011;44284;51.310;16.904;2023-03-11T16:05:33;8.15;;;4.35;;